DLH600 OMDB-EDDF
Flight info
| Callsign | DLH600 |
|---|---|
| Flight time | N/A |
| Altitude | 36000 |
| Route | RIDAP M557 TUMAK L602 GADSI M860 SEPTU DCT VUSEB M860 NINVA UM860 ODALI UL852 NEGEM DCT MAXOV DCT IRLOX DCT BALUX DCT TEKNO DCT ABETI DCT TAGAS DCT SUBEN DCT AKINI T161 DEBHI DEBHI1C |
| Aircraft | A346/H-SDE2E3FGHIJ3J4J5M1RWXY/LB1D1 |
Departure
| Time | 2026-04-22 11:07 |
|---|---|
| Airport | Dubai International Airport (OMDB) |
Arrival
| Time | N/A |
|---|---|
| Airport | Frankfurt Main Airport (EDDF) |
| Time | Latitude | Longitude | Altitude | Speed | Heading |
|---|---|---|---|---|---|
| 2026-04-22 10:27 | 25.24813 | 55.36440 | 35 ft | 0 kts | 211° |
| 2026-04-22 10:41 | 25.24814 | 55.36440 | 32 ft | 2 kts | 211° |
| 2026-04-22 10:41 | 25.24835 | 55.36455 | 28 ft | 4 kts | 215° |
| 2026-04-22 10:41 | 25.24856 | 55.36472 | 28 ft | 4 kts | 209° |
| 2026-04-22 10:42 | 25.24870 | 55.36476 | 27 ft | 4 kts | 175° |
| 2026-04-22 10:42 | 25.24898 | 55.36465 | 27 ft | 4 kts | 139° |
| 2026-04-22 10:42 | 25.24909 | 55.36452 | 29 ft | 4 kts | 123° |
| 2026-04-22 10:42 | 25.24921 | 55.36429 | 28 ft | 1 kts | 122° |
| 2026-04-22 10:43 | 25.24924 | 55.36424 | 30 ft | 0 kts | 122° |
| 2026-04-22 10:49 | 25.24922 | 55.36427 | 33 ft | 2 kts | 122° |
| 2026-04-22 10:49 | 25.24915 | 55.36446 | 28 ft | 3 kts | 99° |
| 2026-04-22 10:49 | 25.24924 | 55.36466 | 32 ft | 3 kts | 35° |
| 2026-04-22 10:50 | 25.24945 | 55.36466 | 29 ft | 3 kts | 334° |
| 2026-04-22 10:50 | 25.24955 | 55.36456 | 33 ft | 5 kts | 309° |
| 2026-04-22 10:50 | 25.24972 | 55.36414 | 30 ft | 7 kts | 282° |
| 2026-04-22 10:50 | 25.24983 | 55.36347 | 30 ft | 10 kts | 284° |
| 2026-04-22 10:51 | 25.25011 | 55.36274 | 29 ft | 10 kts | 298° |
| 2026-04-22 10:51 | 25.25048 | 55.36204 | 30 ft | 11 kts | 301° |
| 2026-04-22 10:51 | 25.25090 | 55.36130 | 30 ft | 12 kts | 302° |
| 2026-04-22 10:51 | 25.25137 | 55.36046 | 30 ft | 14 kts | 302° |
| 2026-04-22 10:52 | 25.25191 | 55.35951 | 30 ft | 15 kts | 302° |
| 2026-04-22 10:52 | 25.25245 | 55.35854 | 30 ft | 15 kts | 302° |
| 2026-04-22 10:52 | 25.25303 | 55.35752 | 30 ft | 16 kts | 302° |
| 2026-04-22 10:52 | 25.25367 | 55.35638 | 29 ft | 18 kts | 302° |
| 2026-04-22 10:53 | 25.25438 | 55.35511 | 29 ft | 20 kts | 302° |
| 2026-04-22 10:53 | 25.25512 | 55.35379 | 29 ft | 21 kts | 302° |
| 2026-04-22 10:53 | 25.25584 | 55.35252 | 29 ft | 13 kts | 302° |
| 2026-04-22 10:53 | 25.25613 | 55.35200 | 29 ft | 8 kts | 302° |
| 2026-04-22 10:54 | 25.25648 | 55.35157 | 29 ft | 7 kts | 339° |
| 2026-04-22 10:54 | 25.25672 | 55.35155 | 29 ft | 0 kts | 5° |
| 2026-04-22 10:54 | 25.25681 | 55.35157 | 29 ft | 2 kts | 11° |
| 2026-04-22 10:54 | 25.25700 | 55.35166 | 29 ft | 4 kts | 26° |
| 2026-04-22 10:55 | 25.25729 | 55.35183 | 29 ft | 4 kts | 29° |
| 2026-04-22 10:55 | 25.25739 | 55.35189 | 30 ft | 0 kts | 29° |
| 2026-04-22 10:56 | 25.25754 | 55.35198 | 30 ft | 5 kts | 29° |
| 2026-04-22 10:57 | 25.25800 | 55.35229 | 30 ft | 9 kts | 31° |
| 2026-04-22 10:57 | 25.25862 | 55.35271 | 30 ft | 12 kts | 32° |
| 2026-04-22 10:57 | 25.25938 | 55.35323 | 30 ft | 12 kts | 32° |
| 2026-04-22 10:57 | 25.25971 | 55.35346 | 30 ft | 6 kts | 31° |
| 2026-04-22 10:58 | 25.25992 | 55.35360 | 30 ft | 3 kts | 32° |
| 2026-04-22 10:58 | 25.26012 | 55.35377 | 30 ft | 5 kts | 42° |
| 2026-04-22 10:58 | 25.26032 | 55.35412 | 31 ft | 6 kts | 71° |
| 2026-04-22 10:58 | 25.26031 | 55.35464 | 31 ft | 8 kts | 104° |
| 2026-04-22 10:59 | 25.26005 | 55.35526 | 31 ft | 10 kts | 120° |
| 2026-04-22 10:59 | 25.25965 | 55.35600 | 31 ft | 12 kts | 121° |
| 2026-04-22 10:59 | 25.25916 | 55.35687 | 31 ft | 14 kts | 122° |
| 2026-04-22 10:59 | 25.25862 | 55.35783 | 31 ft | 15 kts | 122° |
| 2026-04-22 11:00 | 25.25802 | 55.35887 | 32 ft | 17 kts | 122° |
| 2026-04-22 11:00 | 25.25736 | 55.36004 | 32 ft | 19 kts | 121° |
| 2026-04-22 11:00 | 25.25664 | 55.36136 | 32 ft | 21 kts | 122° |
| 2026-04-22 11:00 | 25.25583 | 55.36279 | 32 ft | 23 kts | 122° |
| 2026-04-22 11:01 | 25.25497 | 55.36433 | 32 ft | 24 kts | 122° |
| 2026-04-22 11:01 | 25.25406 | 55.36595 | 32 ft | 25 kts | 121° |
| 2026-04-22 11:01 | 25.25312 | 55.36763 | 32 ft | 27 kts | 122° |
| 2026-04-22 11:01 | 25.25211 | 55.36940 | 32 ft | 27 kts | 122° |
| 2026-04-22 11:02 | 25.25109 | 55.37121 | 33 ft | 28 kts | 122° |
| 2026-04-22 11:02 | 25.25006 | 55.37306 | 34 ft | 29 kts | 122° |
| 2026-04-22 11:02 | 25.24901 | 55.37491 | 33 ft | 28 kts | 122° |
| 2026-04-22 11:02 | 25.24796 | 55.37679 | 33 ft | 28 kts | 122° |
| 2026-04-22 11:03 | 25.24720 | 55.37814 | 33 ft | 9 kts | 119° |
| 2026-04-22 11:03 | 25.24701 | 55.37857 | 33 ft | 6 kts | 127° |
| 2026-04-22 11:03 | 25.24671 | 55.37906 | 33 ft | 8 kts | 109° |
| 2026-04-22 11:03 | 25.24684 | 55.37955 | 33 ft | 2 kts | 44° |
| 2026-04-22 11:04 | 25.24684 | 55.37956 | 33 ft | 0 kts | 44° |
| 2026-04-22 11:04 | 25.24685 | 55.37956 | 33 ft | 0 kts | 44° |
| 2026-04-22 11:05 | 25.24693 | 55.37965 | 33 ft | 5 kts | 43° |
| 2026-04-22 11:05 | 25.24732 | 55.37995 | 36 ft | 7 kts | 31° |
| 2026-04-22 11:05 | 25.24765 | 55.38016 | 38 ft | 4 kts | 30° |
| 2026-04-22 11:05 | 25.24793 | 55.38027 | 38 ft | 4 kts | 346° |
| 2026-04-22 11:06 | 25.24825 | 55.37994 | 38 ft | 13 kts | 305° |
| 2026-04-22 11:06 | 25.24971 | 55.37733 | 38 ft | 69 kts | 302° |
| 2026-04-22 11:06 | 25.25325 | 55.37096 | 38 ft | 124 kts | 302° |
| 2026-04-22 11:06 | 25.25870 | 55.36115 | 38 ft | 171 kts | 301° |
| 2026-04-22 11:07 | 25.26560 | 55.34882 | 176 ft | 198 kts | 304° |
| 2026-04-22 11:07 | 25.27312 | 55.33558 | 652 ft | 204 kts | 303° |
| 2026-04-22 11:07 | 25.28071 | 55.32209 | 1318 ft | 204 kts | 303° |
| 2026-04-22 11:07 | 25.28813 | 55.30887 | 1944 ft | 199 kts | 304° |
| 2026-04-22 11:08 | 25.29549 | 55.29582 | 2246 ft | 203 kts | 305° |
| 2026-04-22 11:08 | 25.30356 | 55.28263 | 2369 ft | 211 kts | 306° |
| 2026-04-22 11:08 | 25.31154 | 55.26836 | 2620 ft | 225 kts | 294° |
| 2026-04-22 11:08 | 25.31559 | 55.25131 | 2872 ft | 241 kts | 283° |
| 2026-04-22 11:09 | 25.31855 | 55.23246 | 3118 ft | 257 kts | 281° |
| 2026-04-22 11:09 | 25.32163 | 55.21238 | 3447 ft | 270 kts | 281° |
| 2026-04-22 11:09 | 25.32505 | 55.19178 | 4031 ft | 273 kts | 281° |
| 2026-04-22 11:09 | 25.32868 | 55.17112 | 4732 ft | 273 kts | 280° |
| 2026-04-22 11:10 | 25.33240 | 55.15047 | 5393 ft | 274 kts | 280° |
| 2026-04-22 11:10 | 25.33622 | 55.12951 | 6046 ft | 277 kts | 279° |
| 2026-04-22 11:10 | 25.34010 | 55.10839 | 6693 ft | 280 kts | 279° |
| 2026-04-22 11:10 | 25.34402 | 55.08725 | 7405 ft | 280 kts | 279° |
| 2026-04-22 11:11 | 25.34794 | 55.06622 | 8156 ft | 279 kts | 279° |
| 2026-04-22 11:11 | 25.35185 | 55.04522 | 8925 ft | 279 kts | 280° |
| 2026-04-22 11:11 | 25.35578 | 55.02421 | 9668 ft | 279 kts | 280° |
| 2026-04-22 11:11 | 25.35967 | 55.00343 | 10318 ft | 281 kts | 280° |
| 2026-04-22 11:12 | 25.36375 | 54.98166 | 10695 ft | 295 kts | 279° |
| 2026-04-22 11:12 | 25.36801 | 54.95882 | 10982 ft | 311 kts | 280° |
| 2026-04-22 11:12 | 25.37250 | 54.93472 | 11264 ft | 328 kts | 280° |
| 2026-04-22 11:12 | 25.37726 | 54.90924 | 11549 ft | 344 kts | 280° |
| 2026-04-22 11:13 | 25.38220 | 54.88276 | 11869 ft | 358 kts | 279° |
| 2026-04-22 11:13 | 25.38735 | 54.85519 | 12150 ft | 373 kts | 279° |
| 2026-04-22 11:13 | 25.39266 | 54.82674 | 12665 ft | 380 kts | 279° |
| 2026-04-22 11:13 | 25.39804 | 54.79794 | 13330 ft | 383 kts | 279° |
| 2026-04-22 11:14 | 25.40346 | 54.76888 | 13937 ft | 387 kts | 279° |
| 2026-04-22 11:14 | 25.40891 | 54.73958 | 14521 ft | 390 kts | 279° |
| 2026-04-22 11:14 | 25.41439 | 54.71004 | 15154 ft | 393 kts | 279° |
| 2026-04-22 11:14 | 25.41982 | 54.68072 | 15771 ft | 395 kts | 279° |
| 2026-04-22 11:15 | 25.42540 | 54.65058 | 16399 ft | 398 kts | 279° |
| 2026-04-22 11:15 | 25.43158 | 54.62065 | 17023 ft | 401 kts | 282° |
| 2026-04-22 11:15 | 25.43927 | 54.59082 | 17646 ft | 404 kts | 285° |
| 2026-04-22 11:15 | 25.44793 | 54.56110 | 18236 ft | 407 kts | 286° |
| 2026-04-22 11:16 | 25.45676 | 54.53122 | 18758 ft | 409 kts | 286° |
| 2026-04-22 11:16 | 25.46568 | 54.50117 | 19265 ft | 412 kts | 286° |
| 2026-04-22 11:16 | 25.47467 | 54.47083 | 19782 ft | 415 kts | 285° |
| 2026-04-22 11:16 | 25.48369 | 54.44032 | 20291 ft | 418 kts | 285° |
| 2026-04-22 11:17 | 25.49264 | 54.41002 | 20799 ft | 421 kts | 285° |
| 2026-04-22 11:17 | 25.50175 | 54.37913 | 21292 ft | 424 kts | 285° |
| 2026-04-22 11:17 | 25.51100 | 54.34775 | 21801 ft | 427 kts | 285° |
| 2026-04-22 11:17 | 25.52023 | 54.31642 | 22274 ft | 429 kts | 285° |
| 2026-04-22 11:18 | 25.52952 | 54.28483 | 22754 ft | 432 kts | 285° |
| 2026-04-22 11:18 | 25.53886 | 54.25300 | 23230 ft | 436 kts | 285° |
| 2026-04-22 11:18 | 25.54828 | 54.22089 | 23629 ft | 439 kts | 285° |
| 2026-04-22 11:18 | 25.55772 | 54.18870 | 24016 ft | 441 kts | 285° |
| 2026-04-22 11:19 | 25.56710 | 54.15672 | 24425 ft | 443 kts | 285° |
| 2026-04-22 11:19 | 25.57664 | 54.12419 | 24840 ft | 445 kts | 285° |
| 2026-04-22 11:19 | 25.58624 | 54.09139 | 25244 ft | 447 kts | 285° |
| 2026-04-22 11:19 | 25.59584 | 54.05850 | 25651 ft | 449 kts | 285° |
| 2026-04-22 11:20 | 25.60533 | 54.02534 | 26057 ft | 452 kts | 285° |
| 2026-04-22 11:20 | 25.61488 | 53.99179 | 26462 ft | 454 kts | 285° |
| 2026-04-22 11:20 | 25.62438 | 53.95832 | 26862 ft | 456 kts | 285° |
| 2026-04-22 11:20 | 25.63398 | 53.92457 | 27267 ft | 459 kts | 285° |
| 2026-04-22 11:21 | 25.64362 | 53.89071 | 27664 ft | 461 kts | 285° |
| 2026-04-22 11:21 | 25.65330 | 53.85667 | 28064 ft | 464 kts | 285° |
| 2026-04-22 11:21 | 25.66290 | 53.82292 | 28461 ft | 466 kts | 285° |
| 2026-04-22 11:21 | 25.67263 | 53.78869 | 29020 ft | 464 kts | 285° |
| 2026-04-22 11:22 | 25.68233 | 53.75455 | 29643 ft | 462 kts | 285° |
| 2026-04-22 11:22 | 25.69195 | 53.72057 | 30184 ft | 460 kts | 285° |
| 2026-04-22 11:22 | 25.70149 | 53.68668 | 30683 ft | 458 kts | 285° |
| 2026-04-22 11:22 | 25.71094 | 53.65304 | 31247 ft | 455 kts | 285° |
| 2026-04-22 11:23 | 25.72030 | 53.61969 | 31857 ft | 450 kts | 285° |
| 2026-04-22 11:23 | 25.72958 | 53.58665 | 32476 ft | 446 kts | 285° |
| 2026-04-22 11:23 | 25.73876 | 53.55394 | 33051 ft | 442 kts | 285° |
| 2026-04-22 11:23 | 25.74784 | 53.52151 | 33637 ft | 438 kts | 285° |
| 2026-04-22 11:24 | 25.75672 | 53.48981 | 34141 ft | 434 kts | 285° |
| 2026-04-22 11:24 | 25.76579 | 53.45745 | 34594 ft | 431 kts | 285° |
| 2026-04-22 11:24 | 25.77456 | 53.42615 | 34982 ft | 430 kts | 285° |
| 2026-04-22 11:24 | 25.78343 | 53.39450 | 35347 ft | 428 kts | 285° |
| 2026-04-22 11:25 | 25.79228 | 53.36294 | 35691 ft | 427 kts | 285° |
| 2026-04-22 11:25 | 25.80993 | 53.29991 | 35791 ft | 427 kts | 285° |
| 2026-04-22 11:26 | 25.82752 | 53.23696 | 35794 ft | 426 kts | 285° |
| 2026-04-22 11:26 | 25.84691 | 53.17520 | 35798 ft | 427 kts | 290° |
| 2026-04-22 11:27 | 25.87081 | 53.11451 | 35800 ft | 427 kts | 292° |
| 2026-04-22 11:27 | 25.89525 | 53.05433 | 35802 ft | 427 kts | 292° |
| 2026-04-22 11:28 | 25.91977 | 52.99399 | 35800 ft | 426 kts | 292° |
| 2026-04-22 11:28 | 25.94419 | 52.93386 | 35806 ft | 426 kts | 292° |
| 2026-04-22 11:29 | 25.96840 | 52.87416 | 35798 ft | 426 kts | 291° |
| 2026-04-22 11:29 | 25.99274 | 52.81409 | 35798 ft | 426 kts | 291° |
| 2026-04-22 11:30 | 26.01718 | 52.75384 | 35802 ft | 426 kts | 292° |
| 2026-04-22 11:30 | 26.04359 | 52.69446 | 35807 ft | 426 kts | 294° |
| 2026-04-22 11:31 | 26.06999 | 52.63587 | 35807 ft | 426 kts | 294° |
| 2026-04-22 11:31 | 26.09664 | 52.57665 | 35805 ft | 426 kts | 294° |
| 2026-04-22 11:32 | 26.12318 | 52.51761 | 35807 ft | 426 kts | 294° |
| 2026-04-22 11:32 | 26.14979 | 52.45859 | 35808 ft | 426 kts | 294° |
| 2026-04-22 11:33 | 26.17642 | 52.39952 | 35806 ft | 426 kts | 294° |
| 2026-04-22 11:33 | 26.20285 | 52.34080 | 35813 ft | 427 kts | 293° |
| 2026-04-22 11:34 | 26.22934 | 52.28134 | 35814 ft | 427 kts | 292° |
| 2026-04-22 11:34 | 26.25507 | 52.22174 | 35819 ft | 426 kts | 292° |
| 2026-04-22 11:35 | 26.28080 | 52.16215 | 35818 ft | 426 kts | 292° |
| 2026-04-22 11:35 | 26.30636 | 52.10299 | 35823 ft | 426 kts | 292° |
| 2026-04-22 11:36 | 26.33215 | 52.04329 | 35821 ft | 425 kts | 292° |
| 2026-04-22 11:36 | 26.35793 | 51.98362 | 35833 ft | 425 kts | 292° |
| 2026-04-22 11:37 | 26.38174 | 51.92332 | 35830 ft | 424 kts | 288° |
| 2026-04-22 11:37 | 26.40263 | 51.86175 | 35834 ft | 423 kts | 288° |
| 2026-04-22 11:38 | 26.42322 | 51.80056 | 35823 ft | 424 kts | 288° |
| 2026-04-22 11:38 | 26.45423 | 51.70805 | 35833 ft | 424 kts | 288° |
| 2026-04-22 11:39 | 26.47490 | 51.64625 | 35832 ft | 425 kts | 288° |
| 2026-04-22 11:39 | 26.49538 | 51.58477 | 35840 ft | 425 kts | 288° |
| 2026-04-22 11:40 | 26.51599 | 51.52277 | 35839 ft | 425 kts | 288° |
| 2026-04-22 11:40 | 26.53660 | 51.46072 | 35839 ft | 425 kts | 288° |
| 2026-04-22 11:41 | 26.55718 | 51.39874 | 35838 ft | 425 kts | 288° |
| 2026-04-22 11:41 | 26.57774 | 51.33667 | 35866 ft | 426 kts | 287° |
| 2026-04-22 11:42 | 26.59818 | 51.27486 | 35849 ft | 427 kts | 287° |
| 2026-04-22 11:42 | 26.61885 | 51.21243 | 35846 ft | 428 kts | 287° |
| 2026-04-22 11:43 | 26.63959 | 51.14977 | 35845 ft | 428 kts | 287° |
| 2026-04-22 11:43 | 26.66025 | 51.08723 | 35844 ft | 429 kts | 287° |
| 2026-04-22 11:44 | 26.68090 | 51.02460 | 35850 ft | 429 kts | 287° |
| 2026-04-22 11:44 | 26.70109 | 50.96220 | 35850 ft | 429 kts | 287° |
| 2026-04-22 11:45 | 26.72115 | 50.89934 | 35848 ft | 429 kts | 286° |
| 2026-04-22 11:45 | 26.74126 | 50.83642 | 35854 ft | 429 kts | 286° |
| 2026-04-22 11:46 | 26.76134 | 50.77349 | 35852 ft | 429 kts | 286° |
| 2026-04-22 11:46 | 26.78375 | 50.71131 | 35858 ft | 431 kts | 291° |
| 2026-04-22 11:47 | 26.81125 | 50.65163 | 35856 ft | 434 kts | 295° |
| 2026-04-22 11:47 | 26.84398 | 50.59451 | 35858 ft | 437 kts | 300° |
| 2026-04-22 11:48 | 26.88143 | 50.54049 | 35862 ft | 440 kts | 303° |
| 2026-04-22 11:48 | 26.92077 | 50.48778 | 35859 ft | 442 kts | 306° |
| 2026-04-22 11:49 | 26.96255 | 50.43755 | 35868 ft | 443 kts | 307° |
| 2026-04-22 11:49 | 27.00503 | 50.38712 | 35867 ft | 443 kts | 307° |
| 2026-04-22 11:50 | 27.04737 | 50.33675 | 35867 ft | 443 kts | 307° |
| 2026-04-22 11:50 | 27.08956 | 50.28595 | 35872 ft | 443 kts | 307° |
| 2026-04-22 11:51 | 27.13175 | 50.23534 | 35873 ft | 445 kts | 308° |
| 2026-04-22 11:51 | 27.17714 | 50.18816 | 35874 ft | 450 kts | 313° |
| 2026-04-22 11:52 | 27.22693 | 50.14505 | 35876 ft | 453 kts | 316° |
| 2026-04-22 11:52 | 27.27778 | 50.10315 | 35877 ft | 453 kts | 316° |
| 2026-04-22 11:53 | 27.32866 | 50.06120 | 35878 ft | 453 kts | 316° |
| 2026-04-22 11:53 | 27.37884 | 50.01922 | 35884 ft | 451 kts | 315° |
| 2026-04-22 11:54 | 27.42836 | 49.97553 | 35879 ft | 450 kts | 314° |
| 2026-04-22 11:54 | 27.47751 | 49.93205 | 35887 ft | 449 kts | 315° |
| 2026-04-22 11:55 | 27.52660 | 49.88873 | 35891 ft | 447 kts | 314° |
| 2026-04-22 11:55 | 27.57555 | 49.84555 | 35884 ft | 446 kts | 315° |
| 2026-04-22 11:56 | 27.62412 | 49.80268 | 35876 ft | 445 kts | 314° |
| 2026-04-22 11:56 | 27.67303 | 49.75947 | 35881 ft | 445 kts | 314° |
| 2026-04-22 11:57 | 27.72178 | 49.71637 | 35886 ft | 445 kts | 314° |
| 2026-04-22 11:57 | 27.77047 | 49.67325 | 35885 ft | 444 kts | 314° |
| 2026-04-22 11:58 | 27.81866 | 49.63033 | 35891 ft | 444 kts | 314° |
| 2026-04-22 11:58 | 27.86707 | 49.58707 | 35889 ft | 444 kts | 314° |
| 2026-04-22 11:59 | 27.91551 | 49.54377 | 35888 ft | 443 kts | 314° |
| 2026-04-22 11:59 | 27.96394 | 49.50045 | 35892 ft | 443 kts | 314° |
| 2026-04-22 12:00 | 28.01232 | 49.45712 | 35892 ft | 443 kts | 314° |
| 2026-04-22 12:00 | 28.04750 | 49.42540 | 35894 ft | 443 kts | 314° |
| 2026-04-22 12:01 | 28.09549 | 49.38156 | 35891 ft | 443 kts | 314° |
| 2026-04-22 12:01 | 28.14348 | 49.33770 | 35892 ft | 443 kts | 314° |
| 2026-04-22 12:02 | 28.19152 | 49.29381 | 35892 ft | 443 kts | 314° |
| 2026-04-22 12:02 | 28.23923 | 49.25016 | 35903 ft | 444 kts | 314° |
| 2026-04-22 12:03 | 28.28733 | 49.20611 | 35901 ft | 444 kts | 314° |
| 2026-04-22 12:03 | 28.33544 | 49.16199 | 35901 ft | 444 kts | 314° |
| 2026-04-22 12:04 | 28.38359 | 49.11797 | 35899 ft | 445 kts | 315° |
| 2026-04-22 12:04 | 28.43403 | 49.07712 | 35904 ft | 449 kts | 318° |
| 2026-04-22 12:05 | 28.48588 | 49.03736 | 35901 ft | 450 kts | 318° |
| 2026-04-22 12:05 | 28.53796 | 48.99746 | 35902 ft | 449 kts | 318° |
| 2026-04-22 12:06 | 28.58979 | 48.95768 | 35908 ft | 449 kts | 318° |
| 2026-04-22 12:06 | 28.64162 | 48.91785 | 35902 ft | 449 kts | 318° |
| 2026-04-22 12:07 | 28.69309 | 48.87825 | 35908 ft | 449 kts | 318° |
| 2026-04-22 12:07 | 28.74482 | 48.83840 | 35907 ft | 449 kts | 318° |
| 2026-04-22 12:08 | 28.79651 | 48.79852 | 35907 ft | 449 kts | 318° |
| 2026-04-22 12:08 | 28.84793 | 48.75900 | 35906 ft | 449 kts | 318° |
| 2026-04-22 12:09 | 28.89977 | 48.71928 | 35908 ft | 448 kts | 318° |
| 2026-04-22 12:09 | 28.95157 | 48.67955 | 35913 ft | 448 kts | 318° |
| 2026-04-22 12:10 | 29.00352 | 48.63965 | 35908 ft | 448 kts | 318° |
| 2026-04-22 12:10 | 29.05530 | 48.59983 | 35909 ft | 448 kts | 318° |
| 2026-04-22 12:11 | 29.10669 | 48.56026 | 35908 ft | 448 kts | 318° |
| 2026-04-22 12:11 | 29.15839 | 48.52041 | 35910 ft | 448 kts | 318° |
| 2026-04-22 12:12 | 29.21008 | 48.48053 | 35910 ft | 448 kts | 318° |
| 2026-04-22 12:12 | 29.26170 | 48.44064 | 35907 ft | 448 kts | 318° |
| 2026-04-22 12:13 | 29.31299 | 48.40098 | 35906 ft | 447 kts | 318° |
| 2026-04-22 12:13 | 29.36460 | 48.36101 | 35910 ft | 447 kts | 318° |
| 2026-04-22 12:14 | 29.41616 | 48.32102 | 35908 ft | 447 kts | 318° |
| 2026-04-22 12:14 | 29.46951 | 48.28344 | 35910 ft | 451 kts | 322° |
| 2026-04-22 12:15 | 29.52369 | 48.24777 | 35909 ft | 452 kts | 322° |
| 2026-04-22 12:15 | 29.57822 | 48.21193 | 35907 ft | 451 kts | 322° |
| 2026-04-22 12:16 | 29.63269 | 48.17606 | 35908 ft | 451 kts | 322° |
| 2026-04-22 12:16 | 29.68719 | 48.14011 | 35912 ft | 451 kts | 322° |
| 2026-04-22 12:17 | 29.74127 | 48.10440 | 35906 ft | 451 kts | 322° |
| 2026-04-22 12:17 | 29.79576 | 48.06836 | 35907 ft | 451 kts | 322° |
| 2026-04-22 12:18 | 29.85018 | 48.03234 | 35909 ft | 451 kts | 322° |
| 2026-04-22 12:18 | 29.90459 | 47.99627 | 35911 ft | 451 kts | 322° |
| 2026-04-22 12:19 | 29.95803 | 47.95959 | 35912 ft | 448 kts | 319° |
| 2026-04-22 12:19 | 30.00835 | 47.91766 | 35912 ft | 442 kts | 313° |
| 2026-04-22 12:20 | 30.05413 | 47.87100 | 35911 ft | 436 kts | 308° |
| 2026-04-22 12:20 | 30.09537 | 47.82012 | 35912 ft | 432 kts | 304° |
| 2026-04-22 12:21 | 30.13492 | 47.76755 | 35917 ft | 432 kts | 304° |
| 2026-04-22 12:21 | 30.17402 | 47.71533 | 35915 ft | 432 kts | 304° |
| 2026-04-22 12:22 | 30.21334 | 47.66274 | 35916 ft | 432 kts | 304° |
| 2026-04-22 12:22 | 30.25264 | 47.61010 | 35904 ft | 432 kts | 304° |
| 2026-04-22 12:23 | 30.29191 | 47.55745 | 35910 ft | 432 kts | 304° |
| 2026-04-22 12:23 | 30.33090 | 47.50510 | 35913 ft | 432 kts | 304° |
| 2026-04-22 12:24 | 30.37031 | 47.45210 | 35905 ft | 432 kts | 304° |
| 2026-04-22 12:24 | 30.40952 | 47.39933 | 35911 ft | 431 kts | 304° |
| 2026-04-22 12:25 | 30.44869 | 47.34654 | 35913 ft | 431 kts | 304° |
| 2026-04-22 12:25 | 30.48781 | 47.29375 | 35904 ft | 431 kts | 304° |
| 2026-04-22 12:26 | 30.52662 | 47.24128 | 35907 ft | 431 kts | 304° |
| 2026-04-22 12:26 | 30.56796 | 47.19027 | 35905 ft | 436 kts | 309° |
| 2026-04-22 12:27 | 30.61370 | 47.14347 | 35907 ft | 440 kts | 313° |
| 2026-04-22 12:27 | 30.66144 | 47.09868 | 35910 ft | 441 kts | 313° |
| 2026-04-22 12:28 | 30.70891 | 47.05432 | 35906 ft | 441 kts | 313° |
| 2026-04-22 12:28 | 30.75671 | 47.00962 | 35907 ft | 441 kts | 313° |
| 2026-04-22 12:29 | 30.80449 | 46.96486 | 35907 ft | 441 kts | 313° |
| 2026-04-22 12:29 | 30.85224 | 46.92006 | 35909 ft | 440 kts | 313° |
| 2026-04-22 12:30 | 30.92328 | 46.85331 | 35907 ft | 440 kts | 313° |
| 2026-04-22 12:31 | 30.97139 | 46.80803 | 35909 ft | 440 kts | 313° |
| 2026-04-22 12:31 | 31.01898 | 46.76318 | 35910 ft | 440 kts | 313° |
| 2026-04-22 12:32 | 31.06656 | 46.71827 | 35907 ft | 440 kts | 313° |
| 2026-04-22 12:32 | 31.13755 | 46.65118 | 35909 ft | 439 kts | 313° |
| 2026-04-22 12:33 | 31.18496 | 46.60629 | 35915 ft | 438 kts | 313° |
| 2026-04-22 12:33 | 31.23230 | 46.56141 | 35920 ft | 438 kts | 313° |
| 2026-04-22 12:34 | 31.27960 | 46.51651 | 35922 ft | 437 kts | 313° |
| 2026-04-22 12:34 | 31.32649 | 46.47193 | 35922 ft | 437 kts | 313° |
| 2026-04-22 12:35 | 31.37367 | 46.42703 | 35929 ft | 437 kts | 313° |
| 2026-04-22 12:35 | 31.42083 | 46.38208 | 35931 ft | 436 kts | 313° |
| 2026-04-22 12:36 | 31.46790 | 46.33715 | 35931 ft | 436 kts | 313° |
| 2026-04-22 12:36 | 31.51498 | 46.29216 | 35939 ft | 436 kts | 313° |
| 2026-04-22 12:37 | 31.56171 | 46.24745 | 35937 ft | 436 kts | 313° |
| 2026-04-22 12:37 | 31.60872 | 46.20241 | 35944 ft | 436 kts | 313° |
| 2026-04-22 12:38 | 31.65575 | 46.15729 | 35953 ft | 436 kts | 313° |
| 2026-04-22 12:38 | 31.70276 | 46.11215 | 35952 ft | 436 kts | 313° |
| 2026-04-22 12:39 | 31.77269 | 46.04445 | 35955 ft | 436 kts | 312° |
| 2026-04-22 12:40 | 31.81918 | 45.99826 | 35956 ft | 436 kts | 311° |
| 2026-04-22 12:40 | 31.86548 | 45.95222 | 35957 ft | 436 kts | 312° |
| 2026-04-22 12:41 | 31.91191 | 45.90606 | 35960 ft | 436 kts | 312° |
| 2026-04-22 12:41 | 31.95796 | 45.86024 | 35960 ft | 436 kts | 312° |
| 2026-04-22 12:42 | 32.00435 | 45.81403 | 35959 ft | 437 kts | 312° |
| 2026-04-22 12:42 | 32.05076 | 45.76776 | 35965 ft | 437 kts | 312° |
| 2026-04-22 12:43 | 32.09717 | 45.72141 | 35966 ft | 437 kts | 312° |
| 2026-04-22 12:43 | 32.14333 | 45.67524 | 35967 ft | 438 kts | 312° |
| 2026-04-22 12:44 | 32.18997 | 45.62855 | 35965 ft | 438 kts | 312° |
| 2026-04-22 12:44 | 32.23640 | 45.58199 | 35969 ft | 438 kts | 312° |
| 2026-04-22 12:45 | 32.28330 | 45.53489 | 35973 ft | 438 kts | 312° |
| 2026-04-22 12:45 | 32.32961 | 45.48833 | 35964 ft | 439 kts | 312° |
| 2026-04-22 12:46 | 32.37615 | 45.44148 | 35975 ft | 439 kts | 312° |
| 2026-04-22 12:46 | 32.42268 | 45.39457 | 35975 ft | 439 kts | 312° |
| 2026-04-22 12:47 | 32.46928 | 45.34754 | 35975 ft | 440 kts | 312° |
| 2026-04-22 12:47 | 32.51554 | 45.30078 | 35978 ft | 440 kts | 312° |
| 2026-04-22 12:48 | 32.56364 | 45.25541 | 35976 ft | 445 kts | 316° |
| 2026-04-22 12:48 | 32.61505 | 45.21386 | 35983 ft | 447 kts | 318° |
| 2026-04-22 12:49 | 32.66686 | 45.17280 | 35984 ft | 448 kts | 318° |
| 2026-04-22 12:49 | 32.71870 | 45.13168 | 35981 ft | 448 kts | 318° |
| 2026-04-22 12:50 | 32.77023 | 45.09072 | 35981 ft | 448 kts | 318° |
| 2026-04-22 12:50 | 32.82225 | 45.04930 | 35987 ft | 449 kts | 319° |
| 2026-04-22 12:51 | 32.87421 | 45.00788 | 35986 ft | 449 kts | 319° |
| 2026-04-22 12:51 | 32.92632 | 44.96627 | 35990 ft | 449 kts | 319° |
| 2026-04-22 12:52 | 32.97824 | 44.92477 | 35991 ft | 449 kts | 319° |
| 2026-04-22 12:52 | 33.02998 | 44.88336 | 35993 ft | 450 kts | 319° |
| 2026-04-22 12:53 | 33.08198 | 44.84167 | 35994 ft | 450 kts | 319° |
| 2026-04-22 12:53 | 33.13396 | 44.80008 | 35993 ft | 451 kts | 320° |
| 2026-04-22 12:54 | 33.18862 | 44.76224 | 35998 ft | 457 kts | 325° |
| 2026-04-22 12:54 | 33.24649 | 44.73098 | 36000 ft | 463 kts | 331° |
| 2026-04-22 12:55 | 33.29790 | 44.70991 | 35999 ft | 469 kts | 336° |
| 2026-04-22 12:55 | 33.37163 | 44.68721 | 36002 ft | 471 kts | 338° |
| 2026-04-22 12:56 | 33.42459 | 44.67170 | 35998 ft | 471 kts | 338° |
| 2026-04-22 12:56 | 33.49861 | 44.64994 | 35994 ft | 471 kts | 338° |
| 2026-04-22 12:57 | 33.56225 | 44.63115 | 35992 ft | 471 kts | 338° |
| 2026-04-22 12:57 | 33.61515 | 44.61549 | 35989 ft | 471 kts | 338° |
| 2026-04-22 12:58 | 33.67887 | 44.59658 | 35990 ft | 471 kts | 338° |
| 2026-04-22 12:58 | 33.74253 | 44.57767 | 35983 ft | 471 kts | 338° |
| 2026-04-22 12:59 | 33.80619 | 44.55873 | 35988 ft | 471 kts | 338° |
| 2026-04-22 12:59 | 33.86940 | 44.53989 | 35982 ft | 471 kts | 338° |
| 2026-04-22 13:00 | 33.93303 | 44.52090 | 35992 ft | 471 kts | 339° |
| 2026-04-22 13:00 | 33.99665 | 44.50189 | 35984 ft | 471 kts | 339° |
| 2026-04-22 13:01 | 34.06043 | 44.48279 | 35983 ft | 471 kts | 339° |
| 2026-04-22 13:01 | 34.12363 | 44.46384 | 35982 ft | 471 kts | 339° |
| 2026-04-22 13:02 | 34.19785 | 44.44153 | 35967 ft | 470 kts | 339° |
| 2026-04-22 13:02 | 34.25059 | 44.42569 | 35974 ft | 470 kts | 339° |
| 2026-04-22 13:03 | 34.31408 | 44.40656 | 35980 ft | 470 kts | 339° |
| 2026-04-22 13:03 | 34.37715 | 44.38753 | 35981 ft | 470 kts | 339° |
| 2026-04-22 13:04 | 34.44059 | 44.36836 | 35979 ft | 470 kts | 339° |
| 2026-04-22 13:04 | 34.50401 | 44.34917 | 35979 ft | 470 kts | 339° |
| 2026-04-22 13:05 | 34.56743 | 44.32994 | 35978 ft | 470 kts | 339° |
| 2026-04-22 13:05 | 34.63041 | 44.31082 | 35982 ft | 469 kts | 339° |
| 2026-04-22 13:06 | 34.69381 | 44.29154 | 35976 ft | 469 kts | 339° |
| 2026-04-22 13:06 | 34.75712 | 44.27226 | 35962 ft | 469 kts | 339° |
| 2026-04-22 13:07 | 34.82049 | 44.25292 | 35971 ft | 469 kts | 339° |
| 2026-04-22 13:07 | 34.88385 | 44.23357 | 35973 ft | 469 kts | 339° |
| 2026-04-22 13:08 | 34.94688 | 44.21428 | 35974 ft | 469 kts | 339° |
| 2026-04-22 13:08 | 35.01016 | 44.19488 | 35976 ft | 469 kts | 340° |
| 2026-04-22 13:09 | 35.07344 | 44.17546 | 35975 ft | 469 kts | 340° |
| 2026-04-22 13:09 | 35.13675 | 44.15600 | 35974 ft | 469 kts | 340° |
| 2026-04-22 13:10 | 35.19958 | 44.13665 | 35974 ft | 469 kts | 340° |
| 2026-04-22 13:10 | 35.26276 | 44.11716 | 35969 ft | 469 kts | 340° |
| 2026-04-22 13:11 | 35.32611 | 44.09759 | 35973 ft | 468 kts | 340° |
| 2026-04-22 13:11 | 35.38930 | 44.07804 | 35973 ft | 468 kts | 340° |
| 2026-04-22 13:12 | 35.45201 | 44.05860 | 35968 ft | 468 kts | 340° |
| 2026-04-22 13:12 | 35.51518 | 44.03899 | 35971 ft | 468 kts | 340° |
| 2026-04-22 13:13 | 35.57836 | 44.01935 | 35972 ft | 468 kts | 340° |
| 2026-04-22 13:13 | 35.64153 | 43.99967 | 35971 ft | 468 kts | 340° |
| 2026-04-22 13:14 | 35.70427 | 43.98010 | 35969 ft | 468 kts | 340° |
| 2026-04-22 13:14 | 35.76738 | 43.96039 | 35970 ft | 468 kts | 340° |
| 2026-04-22 13:15 | 35.83047 | 43.94064 | 35967 ft | 468 kts | 340° |
| 2026-04-22 13:15 | 35.89360 | 43.92086 | 35971 ft | 468 kts | 340° |
| 2026-04-22 13:16 | 35.95664 | 43.90107 | 35981 ft | 467 kts | 340° |
| 2026-04-22 13:16 | 36.01922 | 43.88139 | 35994 ft | 467 kts | 340° |
| 2026-04-22 13:17 | 36.08228 | 43.86154 | 36005 ft | 467 kts | 340° |
| 2026-04-22 13:17 | 36.14530 | 43.84167 | 36010 ft | 467 kts | 340° |
| 2026-04-22 13:18 | 36.20834 | 43.82176 | 36011 ft | 467 kts | 340° |
| 2026-04-22 13:18 | 36.27081 | 43.80036 | 36010 ft | 464 kts | 336° |
| 2026-04-22 13:19 | 36.33059 | 43.77239 | 36003 ft | 461 kts | 332° |
| 2026-04-22 13:19 | 36.38975 | 43.74173 | 36000 ft | 461 kts | 332° |
| 2026-04-22 13:20 | 36.44884 | 43.71097 | 35992 ft | 460 kts | 332° |
| 2026-04-22 13:20 | 36.50790 | 43.68025 | 35984 ft | 460 kts | 332° |
| 2026-04-22 13:21 | 36.56661 | 43.64970 | 35988 ft | 460 kts | 332° |
| 2026-04-22 13:21 | 36.62565 | 43.61893 | 35979 ft | 460 kts | 332° |
| 2026-04-22 13:22 | 36.68467 | 43.58814 | 35989 ft | 460 kts | 332° |
| 2026-04-22 13:22 | 36.74364 | 43.55730 | 35989 ft | 459 kts | 332° |
| 2026-04-22 13:23 | 36.80165 | 43.52539 | 35996 ft | 459 kts | 330° |
| 2026-04-22 13:23 | 36.85978 | 43.49267 | 35996 ft | 458 kts | 330° |
| 2026-04-22 13:24 | 36.91795 | 43.46003 | 36004 ft | 458 kts | 330° |
| 2026-04-22 13:24 | 36.97615 | 43.42740 | 36007 ft | 458 kts | 330° |
| 2026-04-22 13:25 | 37.03385 | 43.39503 | 36007 ft | 457 kts | 330° |
| 2026-04-22 13:25 | 37.09196 | 43.36237 | 36018 ft | 458 kts | 330° |
| 2026-04-22 13:26 | 37.15003 | 43.32969 | 36018 ft | 457 kts | 330° |
| 2026-04-22 13:26 | 37.20810 | 43.29697 | 36021 ft | 457 kts | 330° |
| 2026-04-22 13:27 | 37.26548 | 43.26371 | 36029 ft | 455 kts | 327° |
| 2026-04-22 13:27 | 37.31793 | 43.22047 | 36023 ft | 448 kts | 316° |
| 2026-04-22 13:28 | 37.36235 | 43.16640 | 36032 ft | 442 kts | 307° |
| 2026-04-22 13:28 | 37.39768 | 43.10362 | 36038 ft | 438 kts | 297° |
| 2026-04-22 13:29 | 37.42673 | 43.03683 | 36033 ft | 437 kts | 295° |
| 2026-04-22 13:29 | 37.45543 | 42.96934 | 36039 ft | 437 kts | 295° |
| 2026-04-22 13:30 | 37.48421 | 42.90152 | 36032 ft | 437 kts | 295° |
| 2026-04-22 13:30 | 37.51266 | 42.83441 | 36031 ft | 437 kts | 295° |
| 2026-04-22 13:31 | 37.54137 | 42.76661 | 36035 ft | 437 kts | 295° |
| 2026-04-22 13:31 | 37.56994 | 42.69896 | 36034 ft | 437 kts | 295° |
| 2026-04-22 13:32 | 37.59851 | 42.63116 | 36036 ft | 437 kts | 295° |
| 2026-04-22 13:32 | 37.62705 | 42.56336 | 36034 ft | 437 kts | 295° |
| 2026-04-22 13:33 | 37.65535 | 42.49600 | 36024 ft | 437 kts | 295° |
| 2026-04-22 13:33 | 37.68384 | 42.42807 | 36029 ft | 437 kts | 295° |
| 2026-04-22 13:34 | 37.71223 | 42.36021 | 36030 ft | 437 kts | 295° |
| 2026-04-22 13:34 | 37.74060 | 42.29228 | 36023 ft | 437 kts | 295° |
| 2026-04-22 13:35 | 37.76881 | 42.22463 | 36014 ft | 437 kts | 295° |
| 2026-04-22 13:35 | 37.79717 | 42.15643 | 36013 ft | 438 kts | 295° |
| 2026-04-22 13:36 | 37.82544 | 42.08831 | 36010 ft | 437 kts | 295° |
| 2026-04-22 13:36 | 37.85371 | 42.02005 | 36003 ft | 437 kts | 295° |
| 2026-04-22 13:37 | 37.88189 | 41.95234 | 35998 ft | 438 kts | 296° |
| 2026-04-22 13:37 | 37.91393 | 41.88652 | 35989 ft | 440 kts | 301° |
| 2026-04-22 13:38 | 37.95102 | 41.82453 | 35994 ft | 443 kts | 306° |
| 2026-04-22 13:38 | 38.01176 | 41.73656 | 35991 ft | 444 kts | 307° |
| 2026-04-22 13:39 | 38.05261 | 41.67784 | 35988 ft | 443 kts | 307° |
| 2026-04-22 13:39 | 38.09342 | 41.61903 | 35994 ft | 443 kts | 307° |
| 2026-04-22 13:40 | 38.13421 | 41.56015 | 35987 ft | 443 kts | 307° |
| 2026-04-22 13:40 | 38.17492 | 41.50125 | 35995 ft | 443 kts | 307° |
| 2026-04-22 13:41 | 38.21574 | 41.44208 | 35990 ft | 444 kts | 307° |
| 2026-04-22 13:41 | 38.25616 | 41.38339 | 35987 ft | 444 kts | 307° |
| 2026-04-22 13:42 | 38.29680 | 41.32428 | 35996 ft | 444 kts | 307° |
| 2026-04-22 13:42 | 38.33743 | 41.26506 | 35993 ft | 443 kts | 307° |
| 2026-04-22 13:43 | 38.37802 | 41.20581 | 35996 ft | 443 kts | 307° |
| 2026-04-22 13:43 | 38.41830 | 41.14691 | 35995 ft | 443 kts | 307° |
| 2026-04-22 13:44 | 38.45883 | 41.08751 | 35996 ft | 443 kts | 307° |
| 2026-04-22 13:44 | 38.49865 | 41.02745 | 35998 ft | 443 kts | 306° |
| 2026-04-22 13:45 | 38.53806 | 40.96695 | 35997 ft | 443 kts | 305° |
| 2026-04-22 13:45 | 38.57754 | 40.90642 | 36001 ft | 442 kts | 306° |
| 2026-04-22 13:46 | 38.61670 | 40.84633 | 35996 ft | 443 kts | 306° |
| 2026-04-22 13:46 | 38.65628 | 40.78604 | 36004 ft | 442 kts | 306° |
| 2026-04-22 13:47 | 38.69625 | 40.72573 | 35998 ft | 443 kts | 306° |
| 2026-04-22 13:47 | 38.73607 | 40.66553 | 35999 ft | 443 kts | 306° |
| 2026-04-22 13:48 | 38.77560 | 40.60564 | 36004 ft | 443 kts | 306° |
| 2026-04-22 13:48 | 38.81535 | 40.54526 | 36004 ft | 443 kts | 306° |
| 2026-04-22 13:49 | 38.85505 | 40.48484 | 36005 ft | 442 kts | 306° |
| 2026-04-22 13:49 | 38.89473 | 40.42435 | 35993 ft | 442 kts | 306° |
| 2026-04-22 13:50 | 38.93409 | 40.36425 | 35992 ft | 442 kts | 306° |
| 2026-04-22 13:50 | 38.97372 | 40.30361 | 35990 ft | 443 kts | 306° |
| 2026-04-22 13:51 | 39.01347 | 40.24266 | 35990 ft | 442 kts | 306° |
| 2026-04-22 13:51 | 39.05301 | 40.18191 | 35983 ft | 443 kts | 306° |
| 2026-04-22 13:52 | 39.09254 | 40.12108 | 35978 ft | 443 kts | 306° |
| 2026-04-22 13:52 | 39.13180 | 40.06055 | 35979 ft | 443 kts | 305° |
| 2026-04-22 13:53 | 39.17131 | 39.99949 | 35981 ft | 443 kts | 306° |
| 2026-04-22 13:53 | 39.21082 | 39.93830 | 35973 ft | 443 kts | 305° |
| 2026-04-22 13:54 | 39.25000 | 39.87743 | 35972 ft | 444 kts | 305° |
| 2026-04-22 13:54 | 39.28956 | 39.81585 | 35982 ft | 444 kts | 305° |
| 2026-04-22 13:55 | 39.32901 | 39.75437 | 35978 ft | 444 kts | 305° |
| 2026-04-22 13:55 | 39.36852 | 39.69267 | 35970 ft | 445 kts | 305° |
| 2026-04-22 13:56 | 39.40794 | 39.63099 | 35957 ft | 445 kts | 305° |
| 2026-04-22 13:56 | 39.44710 | 39.56962 | 35953 ft | 445 kts | 305° |
| 2026-04-22 13:57 | 39.48648 | 39.50777 | 35953 ft | 445 kts | 305° |
| 2026-04-22 13:57 | 39.52573 | 39.44577 | 35956 ft | 445 kts | 305° |
| 2026-04-22 13:58 | 39.56454 | 39.38323 | 35960 ft | 445 kts | 304° |
| 2026-04-22 13:58 | 39.60326 | 39.32069 | 35959 ft | 444 kts | 304° |
| 2026-04-22 13:59 | 39.64171 | 39.25860 | 35957 ft | 444 kts | 304° |
| 2026-04-22 13:59 | 39.68039 | 39.19603 | 35959 ft | 444 kts | 304° |
| 2026-04-22 14:00 | 39.71915 | 39.13320 | 35953 ft | 445 kts | 304° |
| 2026-04-22 14:00 | 39.75813 | 39.07069 | 35942 ft | 444 kts | 305° |
| 2026-04-22 14:01 | 39.79711 | 39.00864 | 35934 ft | 444 kts | 305° |
| 2026-04-22 14:01 | 39.83616 | 38.94630 | 35934 ft | 444 kts | 305° |
| 2026-04-22 14:02 | 39.87522 | 38.88378 | 35928 ft | 445 kts | 305° |
| 2026-04-22 14:02 | 39.91430 | 38.82110 | 35924 ft | 445 kts | 305° |
| 2026-04-22 14:03 | 39.95310 | 38.75874 | 35915 ft | 446 kts | 305° |
| 2026-04-22 14:03 | 39.99213 | 38.69590 | 35915 ft | 446 kts | 305° |
| 2026-04-22 14:04 | 40.03117 | 38.63291 | 35905 ft | 446 kts | 305° |
| 2026-04-22 14:04 | 40.07011 | 38.56993 | 35910 ft | 446 kts | 305° |
| 2026-04-22 14:05 | 40.10878 | 38.50729 | 35897 ft | 445 kts | 305° |
| 2026-04-22 14:06 | 40.16708 | 38.41260 | 35901 ft | 445 kts | 304° |
| 2026-04-22 14:06 | 40.20592 | 38.34937 | 35896 ft | 445 kts | 304° |
| 2026-04-22 14:07 | 40.24468 | 38.28613 | 35895 ft | 445 kts | 304° |
| 2026-04-22 14:07 | 40.28302 | 38.22246 | 35895 ft | 444 kts | 302° |
| 2026-04-22 14:08 | 40.31692 | 38.15574 | 35892 ft | 441 kts | 297° |
| 2026-04-22 14:08 | 40.34569 | 38.08496 | 35881 ft | 438 kts | 292° |
| 2026-04-22 14:09 | 40.36933 | 38.01152 | 35890 ft | 436 kts | 289° |
| 2026-04-22 14:09 | 40.39170 | 37.93746 | 35895 ft | 436 kts | 289° |
| 2026-04-22 14:10 | 40.41378 | 37.86394 | 35895 ft | 435 kts | 289° |
| 2026-04-22 14:10 | 40.43596 | 37.78995 | 35902 ft | 435 kts | 289° |
| 2026-04-22 14:11 | 40.45806 | 37.71598 | 35908 ft | 434 kts | 289° |
| 2026-04-22 14:11 | 40.46767 | 37.68372 | 35907 ft | 434 kts | 289° |
| 2026-04-22 14:12 | 40.48950 | 37.61026 | 35905 ft | 434 kts | 289° |
| 2026-04-22 14:12 | 40.51141 | 37.53629 | 35905 ft | 434 kts | 289° |
| 2026-04-22 14:13 | 40.53329 | 37.46224 | 35908 ft | 434 kts | 289° |
| 2026-04-22 14:13 | 40.55509 | 37.38826 | 35905 ft | 433 kts | 289° |
| 2026-04-22 14:14 | 40.57675 | 37.31457 | 35903 ft | 433 kts | 289° |
| 2026-04-22 14:14 | 40.59844 | 37.24056 | 35906 ft | 433 kts | 289° |
| 2026-04-22 14:15 | 40.62008 | 37.16653 | 35905 ft | 432 kts | 288° |
| 2026-04-22 14:15 | 40.64163 | 37.09261 | 35906 ft | 432 kts | 288° |
| 2026-04-22 14:16 | 40.66311 | 37.01870 | 35910 ft | 431 kts | 288° |
| 2026-04-22 14:16 | 40.68439 | 36.94527 | 35914 ft | 431 kts | 288° |
| 2026-04-22 14:17 | 40.70574 | 36.87141 | 35914 ft | 431 kts | 288° |
| 2026-04-22 14:17 | 40.72704 | 36.79753 | 35919 ft | 430 kts | 288° |
| 2026-04-22 14:18 | 40.74829 | 36.72357 | 35924 ft | 430 kts | 288° |
| 2026-04-22 14:18 | 40.76932 | 36.65014 | 35927 ft | 430 kts | 288° |
| 2026-04-22 14:19 | 40.79046 | 36.57612 | 35934 ft | 430 kts | 288° |
| 2026-04-22 14:19 | 40.81156 | 36.50209 | 35940 ft | 431 kts | 288° |
| 2026-04-22 14:20 | 40.84312 | 36.39092 | 35943 ft | 430 kts | 288° |
| 2026-04-22 14:20 | 40.86394 | 36.31730 | 35939 ft | 430 kts | 288° |
| 2026-04-22 14:21 | 40.89536 | 36.20589 | 35937 ft | 430 kts | 287° |
| 2026-04-22 14:22 | 40.92655 | 36.09478 | 35928 ft | 430 kts | 287° |
| 2026-04-22 14:23 | 40.95767 | 35.98343 | 35922 ft | 430 kts | 287° |
| 2026-04-22 14:23 | 40.97837 | 35.90909 | 35908 ft | 430 kts | 287° |
| 2026-04-22 14:24 | 40.99901 | 35.83474 | 35894 ft | 429 kts | 287° |
| 2026-04-22 14:24 | 41.01944 | 35.76090 | 35885 ft | 429 kts | 287° |
| 2026-04-22 14:25 | 41.03997 | 35.68656 | 35877 ft | 430 kts | 287° |
| 2026-04-22 14:25 | 41.06049 | 35.61204 | 35874 ft | 430 kts | 287° |
| 2026-04-22 14:26 | 41.08097 | 35.53747 | 35877 ft | 430 kts | 287° |
| 2026-04-22 14:26 | 41.10138 | 35.46291 | 35874 ft | 430 kts | 287° |
| 2026-04-22 14:27 | 41.12165 | 35.38866 | 35876 ft | 429 kts | 287° |
| 2026-04-22 14:27 | 41.14193 | 35.31416 | 35884 ft | 428 kts | 287° |
| 2026-04-22 14:28 | 41.16212 | 35.23976 | 35883 ft | 428 kts | 286° |
| 2026-04-22 14:28 | 41.18210 | 35.16591 | 35879 ft | 427 kts | 286° |
| 2026-04-22 14:29 | 41.20215 | 35.09157 | 35873 ft | 427 kts | 286° |
| 2026-04-22 14:29 | 41.22217 | 35.01715 | 35884 ft | 427 kts | 286° |
| 2026-04-22 14:30 | 41.24212 | 34.94281 | 35880 ft | 427 kts | 286° |
| 2026-04-22 14:30 | 41.26205 | 34.86817 | 35888 ft | 426 kts | 286° |
| 2026-04-22 14:31 | 41.28175 | 34.79430 | 35875 ft | 426 kts | 286° |
| 2026-04-22 14:31 | 41.30189 | 34.71870 | 35891 ft | 426 kts | 286° |
| 2026-04-22 14:32 | 41.32169 | 34.64413 | 35886 ft | 425 kts | 286° |
| 2026-04-22 14:32 | 41.34134 | 34.56983 | 35887 ft | 425 kts | 286° |
| 2026-04-22 14:33 | 41.36101 | 34.49530 | 35893 ft | 425 kts | 285° |
| 2026-04-22 14:33 | 41.38055 | 34.42106 | 35905 ft | 424 kts | 285° |
| 2026-04-22 14:34 | 41.40003 | 34.34677 | 35910 ft | 424 kts | 285° |
| 2026-04-22 14:34 | 41.41932 | 34.27257 | 35907 ft | 423 kts | 285° |
| 2026-04-22 14:35 | 41.43836 | 34.19886 | 35920 ft | 423 kts | 285° |
| 2026-04-22 14:35 | 41.45747 | 34.12471 | 35925 ft | 422 kts | 285° |
| 2026-04-22 14:36 | 41.47654 | 34.05073 | 35937 ft | 421 kts | 285° |
| 2026-04-22 14:36 | 41.49551 | 33.97699 | 35953 ft | 419 kts | 285° |
| 2026-04-22 14:37 | 41.51440 | 33.90332 | 35958 ft | 418 kts | 285° |
| 2026-04-22 14:37 | 41.53311 | 33.83013 | 35963 ft | 417 kts | 285° |
| 2026-04-22 14:38 | 41.55182 | 33.75676 | 35978 ft | 417 kts | 285° |
| 2026-04-22 14:38 | 41.57048 | 33.68330 | 35991 ft | 417 kts | 285° |
| 2026-04-22 14:39 | 41.58908 | 33.60985 | 35996 ft | 417 kts | 285° |
| 2026-04-22 14:39 | 41.60756 | 33.53681 | 36005 ft | 417 kts | 285° |
| 2026-04-22 14:40 | 41.63534 | 33.42631 | 36018 ft | 418 kts | 284° |
| 2026-04-22 14:40 | 41.65381 | 33.35250 | 36024 ft | 418 kts | 284° |
| 2026-04-22 14:41 | 41.67225 | 33.27864 | 36028 ft | 419 kts | 284° |
| 2026-04-22 14:41 | 41.68572 | 33.22457 | 36030 ft | 419 kts | 284° |
| 2026-04-22 14:42 | 41.70415 | 33.15036 | 36035 ft | 420 kts | 284° |
| 2026-04-22 14:42 | 41.72252 | 33.07614 | 36033 ft | 419 kts | 284° |
| 2026-04-22 14:43 | 41.74088 | 33.00171 | 36035 ft | 419 kts | 284° |
| 2026-04-22 14:43 | 41.75908 | 32.92778 | 36038 ft | 419 kts | 284° |
| 2026-04-22 14:44 | 41.77730 | 32.85357 | 36040 ft | 419 kts | 284° |
| 2026-04-22 14:44 | 41.79545 | 32.77932 | 36035 ft | 419 kts | 284° |
| 2026-04-22 14:45 | 41.81354 | 32.70504 | 36037 ft | 419 kts | 284° |
| 2026-04-22 14:45 | 41.83145 | 32.63124 | 36036 ft | 419 kts | 284° |
| 2026-04-22 14:46 | 41.84945 | 32.55686 | 36035 ft | 419 kts | 284° |
| 2026-04-22 14:46 | 41.86738 | 32.48245 | 36031 ft | 418 kts | 284° |
| 2026-04-22 14:47 | 41.88526 | 32.40775 | 36034 ft | 418 kts | 284° |
| 2026-04-22 14:47 | 41.90290 | 32.33383 | 36033 ft | 418 kts | 284° |
| 2026-04-22 14:48 | 41.92082 | 32.25942 | 36034 ft | 418 kts | 284° |
| 2026-04-22 14:48 | 41.93861 | 32.18501 | 36033 ft | 418 kts | 284° |
| 2026-04-22 14:49 | 41.95625 | 32.11057 | 36039 ft | 417 kts | 284° |
| 2026-04-22 14:49 | 41.97383 | 32.03619 | 36036 ft | 416 kts | 284° |
| 2026-04-22 14:50 | 41.99121 | 31.96243 | 36045 ft | 416 kts | 284° |
| 2026-04-22 14:50 | 42.00867 | 31.88806 | 36041 ft | 415 kts | 284° |
| 2026-04-22 14:51 | 42.02600 | 31.81412 | 36036 ft | 414 kts | 284° |
| 2026-04-22 14:51 | 42.04332 | 31.74005 | 36048 ft | 413 kts | 284° |
| 2026-04-22 14:52 | 42.06043 | 31.66663 | 36047 ft | 414 kts | 284° |
| 2026-04-22 14:52 | 42.07763 | 31.59261 | 36047 ft | 413 kts | 284° |
| 2026-04-22 14:53 | 42.09477 | 31.51861 | 36048 ft | 414 kts | 284° |
| 2026-04-22 14:53 | 42.11193 | 31.44424 | 36045 ft | 414 kts | 284° |
| 2026-04-22 14:54 | 42.12884 | 31.37067 | 36049 ft | 414 kts | 284° |
| 2026-04-22 14:54 | 42.14582 | 31.29650 | 36051 ft | 413 kts | 284° |
| 2026-04-22 14:55 | 42.16276 | 31.22233 | 36049 ft | 413 kts | 284° |
| 2026-04-22 14:55 | 42.17966 | 31.14807 | 36048 ft | 413 kts | 284° |
| 2026-04-22 14:56 | 42.19651 | 31.07380 | 36051 ft | 414 kts | 284° |
| 2026-04-22 14:56 | 42.21320 | 30.99997 | 36051 ft | 414 kts | 284° |
| 2026-04-22 14:57 | 42.23000 | 30.92540 | 36050 ft | 414 kts | 284° |
| 2026-04-22 14:57 | 42.24675 | 30.85086 | 36055 ft | 414 kts | 284° |
| 2026-04-22 14:58 | 42.26345 | 30.77623 | 36044 ft | 415 kts | 284° |
| 2026-04-22 14:58 | 42.27999 | 30.70208 | 36051 ft | 415 kts | 284° |
| 2026-04-22 14:59 | 42.29662 | 30.62724 | 36051 ft | 415 kts | 284° |
| 2026-04-22 14:59 | 42.31326 | 30.55213 | 36055 ft | 416 kts | 284° |
| 2026-04-22 15:00 | 42.32983 | 30.47705 | 36054 ft | 417 kts | 284° |
| 2026-04-22 15:00 | 42.34627 | 30.40236 | 36055 ft | 417 kts | 284° |
| 2026-04-22 15:01 | 42.36278 | 30.32704 | 36054 ft | 417 kts | 283° |
| 2026-04-22 15:01 | 42.37491 | 30.27158 | 36052 ft | 417 kts | 283° |
| 2026-04-22 15:02 | 42.39135 | 30.19614 | 36053 ft | 418 kts | 283° |
| 2026-04-22 15:02 | 42.40765 | 30.12112 | 36054 ft | 418 kts | 283° |
| 2026-04-22 15:03 | 42.42401 | 30.04548 | 36057 ft | 418 kts | 283° |
| 2026-04-22 15:03 | 42.44142 | 29.97012 | 36054 ft | 420 kts | 287° |
| 2026-04-22 15:04 | 42.46405 | 29.89686 | 36052 ft | 423 kts | 292° |
| 2026-04-22 15:04 | 42.49206 | 29.82702 | 36054 ft | 426 kts | 297° |
| 2026-04-22 15:05 | 42.52589 | 29.76014 | 36054 ft | 431 kts | 302° |
| 2026-04-22 15:05 | 42.56290 | 29.69584 | 36052 ft | 432 kts | 303° |
| 2026-04-22 15:06 | 42.60013 | 29.63164 | 36054 ft | 433 kts | 303° |
| 2026-04-22 15:06 | 42.63742 | 29.56725 | 36055 ft | 434 kts | 303° |
| 2026-04-22 15:07 | 42.67464 | 29.50286 | 36053 ft | 435 kts | 303° |
| 2026-04-22 15:07 | 42.71208 | 29.43795 | 36055 ft | 436 kts | 303° |
| 2026-04-22 15:08 | 42.74958 | 29.37278 | 36054 ft | 437 kts | 303° |
| 2026-04-22 15:08 | 42.78717 | 29.30733 | 36052 ft | 439 kts | 303° |
| 2026-04-22 15:09 | 42.82467 | 29.24188 | 36052 ft | 440 kts | 303° |
| 2026-04-22 15:09 | 42.86235 | 29.17600 | 36053 ft | 441 kts | 303° |
| 2026-04-22 15:10 | 42.90011 | 29.10980 | 36053 ft | 442 kts | 303° |
| 2026-04-22 15:10 | 42.93789 | 29.04343 | 36053 ft | 443 kts | 303° |
| 2026-04-22 15:11 | 42.97544 | 28.97732 | 36058 ft | 443 kts | 303° |
| 2026-04-22 15:11 | 43.01335 | 28.91042 | 36048 ft | 444 kts | 303° |
| 2026-04-22 15:12 | 43.05120 | 28.84349 | 36055 ft | 445 kts | 303° |
| 2026-04-22 15:12 | 43.08904 | 28.77642 | 36049 ft | 445 kts | 304° |
| 2026-04-22 15:13 | 43.12693 | 28.70910 | 36050 ft | 445 kts | 304° |
| 2026-04-22 15:13 | 43.16452 | 28.64218 | 36052 ft | 445 kts | 304° |
| 2026-04-22 15:14 | 43.20226 | 28.57481 | 36052 ft | 446 kts | 304° |
| 2026-04-22 15:14 | 43.24004 | 28.50722 | 36047 ft | 446 kts | 304° |
| 2026-04-22 15:15 | 43.27779 | 28.43954 | 36049 ft | 446 kts | 304° |
| 2026-04-22 15:15 | 43.31527 | 28.37221 | 36045 ft | 447 kts | 304° |
| 2026-04-22 15:16 | 43.35301 | 28.30422 | 36050 ft | 447 kts | 304° |
| 2026-04-22 15:16 | 43.39074 | 28.23610 | 36042 ft | 448 kts | 304° |
| 2026-04-22 15:17 | 43.42845 | 28.16788 | 36038 ft | 448 kts | 304° |
| 2026-04-22 15:17 | 43.46594 | 28.09988 | 36041 ft | 448 kts | 304° |
| 2026-04-22 15:18 | 43.50369 | 28.03127 | 36039 ft | 449 kts | 304° |
| 2026-04-22 15:18 | 43.54143 | 27.96251 | 36039 ft | 450 kts | 304° |
| 2026-04-22 15:19 | 43.57919 | 27.89354 | 36038 ft | 450 kts | 304° |
| 2026-04-22 15:19 | 43.61708 | 27.82525 | 36037 ft | 452 kts | 306° |
| 2026-04-22 15:20 | 43.65673 | 27.75770 | 36039 ft | 453 kts | 306° |
| 2026-04-22 15:20 | 43.69655 | 27.69008 | 36037 ft | 453 kts | 306° |
| 2026-04-22 15:21 | 43.73645 | 27.62212 | 36037 ft | 453 kts | 306° |
| 2026-04-22 15:21 | 43.77627 | 27.55411 | 36038 ft | 453 kts | 306° |
| 2026-04-22 15:22 | 43.81571 | 27.48658 | 36035 ft | 454 kts | 306° |
| 2026-04-22 15:22 | 43.85543 | 27.41841 | 36039 ft | 454 kts | 306° |
| 2026-04-22 15:23 | 43.89514 | 27.35009 | 36039 ft | 455 kts | 306° |
| 2026-04-22 15:23 | 43.93477 | 27.28174 | 36023 ft | 455 kts | 306° |
| 2026-04-22 15:24 | 43.97442 | 27.21319 | 36041 ft | 454 kts | 306° |
| 2026-04-22 15:24 | 44.01387 | 27.14484 | 36029 ft | 455 kts | 306° |
| 2026-04-22 15:25 | 44.05341 | 27.07614 | 36028 ft | 455 kts | 306° |
| 2026-04-22 15:25 | 44.09307 | 27.00709 | 36030 ft | 455 kts | 306° |
| 2026-04-22 15:26 | 44.13263 | 26.93806 | 36038 ft | 455 kts | 306° |
| 2026-04-22 15:26 | 44.17183 | 26.86947 | 36033 ft | 456 kts | 306° |
| 2026-04-22 15:27 | 44.21135 | 26.80017 | 36038 ft | 456 kts | 306° |
| 2026-04-22 15:27 | 44.25086 | 26.73073 | 36032 ft | 457 kts | 306° |
| 2026-04-22 15:28 | 44.29043 | 26.66101 | 36033 ft | 457 kts | 306° |
| 2026-04-22 15:28 | 44.32988 | 26.59132 | 36032 ft | 457 kts | 306° |
| 2026-04-22 15:29 | 44.36910 | 26.52187 | 36030 ft | 458 kts | 306° |
| 2026-04-22 15:30 | 44.42158 | 26.42869 | 36033 ft | 458 kts | 306° |
| 2026-04-22 15:30 | 44.46762 | 26.34669 | 36039 ft | 458 kts | 306° |
| 2026-04-22 15:31 | 44.50746 | 26.27556 | 36039 ft | 458 kts | 306° |
| 2026-04-22 15:31 | 44.54656 | 26.20557 | 36038 ft | 459 kts | 306° |
| 2026-04-22 15:32 | 44.58594 | 26.13491 | 36037 ft | 459 kts | 306° |
| 2026-04-22 15:32 | 44.62527 | 26.06419 | 36040 ft | 459 kts | 306° |
| 2026-04-22 15:33 | 44.66454 | 25.99335 | 36038 ft | 459 kts | 306° |
| 2026-04-22 15:33 | 44.70380 | 25.92238 | 36036 ft | 460 kts | 307° |
| 2026-04-22 15:34 | 44.74278 | 25.85173 | 36036 ft | 460 kts | 307° |
| 2026-04-22 15:34 | 44.78205 | 25.78039 | 36037 ft | 460 kts | 307° |
| 2026-04-22 15:35 | 44.81465 | 25.72102 | 36035 ft | 461 kts | 307° |
| 2026-04-22 15:35 | 44.86051 | 25.63731 | 36037 ft | 461 kts | 307° |
| 2026-04-22 15:36 | 44.89942 | 25.56608 | 36035 ft | 461 kts | 307° |
| 2026-04-22 15:36 | 44.93859 | 25.49420 | 36038 ft | 462 kts | 307° |
| 2026-04-22 15:37 | 44.97774 | 25.42218 | 36032 ft | 462 kts | 307° |
| 2026-04-22 15:37 | 45.01699 | 25.34980 | 36037 ft | 462 kts | 307° |
| 2026-04-22 15:38 | 45.05593 | 25.27780 | 36034 ft | 462 kts | 307° |
| 2026-04-22 15:38 | 45.11452 | 25.16912 | 36039 ft | 463 kts | 307° |
| 2026-04-22 15:39 | 45.15357 | 25.09644 | 36038 ft | 463 kts | 307° |
| 2026-04-22 15:39 | 45.18601 | 25.03594 | 36036 ft | 463 kts | 307° |
| 2026-04-22 15:40 | 45.23132 | 24.95121 | 36043 ft | 464 kts | 307° |
| 2026-04-22 15:40 | 45.27032 | 24.87808 | 36040 ft | 464 kts | 307° |
| 2026-04-22 15:41 | 45.30925 | 24.80491 | 36040 ft | 464 kts | 307° |
| 2026-04-22 15:41 | 45.34163 | 24.74390 | 36043 ft | 464 kts | 307° |
| 2026-04-22 15:42 | 45.38680 | 24.65857 | 36040 ft | 465 kts | 307° |
| 2026-04-22 15:42 | 45.42581 | 24.58470 | 36046 ft | 465 kts | 307° |
| 2026-04-22 15:43 | 45.45834 | 24.52294 | 36046 ft | 465 kts | 307° |
| 2026-04-22 15:43 | 45.50346 | 24.43705 | 36044 ft | 465 kts | 307° |
| 2026-04-22 15:44 | 45.53572 | 24.37548 | 36049 ft | 466 kts | 307° |
| 2026-04-22 15:44 | 45.57451 | 24.30128 | 36055 ft | 466 kts | 307° |
| 2026-04-22 15:45 | 45.61319 | 24.22680 | 36061 ft | 467 kts | 306° |
| 2026-04-22 15:45 | 45.64801 | 24.14921 | 36063 ft | 467 kts | 300° |
| 2026-04-22 15:46 | 45.68122 | 24.06080 | 36062 ft | 468 kts | 298° |
| 2026-04-22 15:46 | 45.71161 | 23.97806 | 36062 ft | 468 kts | 298° |
| 2026-04-22 15:47 | 45.74189 | 23.89544 | 36064 ft | 468 kts | 298° |
| 2026-04-22 15:48 | 45.79971 | 23.73723 | 36061 ft | 468 kts | 298° |
| 2026-04-22 15:48 | 45.82989 | 23.65431 | 36064 ft | 469 kts | 298° |
| 2026-04-22 15:49 | 45.86006 | 23.57114 | 36059 ft | 469 kts | 298° |
| 2026-04-22 15:49 | 45.89017 | 23.48791 | 36056 ft | 470 kts | 298° |
| 2026-04-22 15:50 | 45.92025 | 23.40450 | 36061 ft | 470 kts | 298° |
| 2026-04-22 15:50 | 45.95008 | 23.32154 | 36057 ft | 470 kts | 298° |
| 2026-04-22 15:51 | 45.98006 | 23.23791 | 36059 ft | 470 kts | 298° |
| 2026-04-22 15:51 | 46.00999 | 23.15412 | 36055 ft | 470 kts | 298° |
| 2026-04-22 15:52 | 46.03992 | 23.07008 | 36058 ft | 470 kts | 298° |
| 2026-04-22 15:52 | 46.06974 | 22.98610 | 36060 ft | 471 kts | 298° |
| 2026-04-22 15:53 | 46.09932 | 22.90253 | 36061 ft | 471 kts | 298° |
| 2026-04-22 15:53 | 46.12908 | 22.81819 | 36060 ft | 471 kts | 298° |
| 2026-04-22 15:54 | 46.15882 | 22.73361 | 36064 ft | 471 kts | 298° |
| 2026-04-22 15:54 | 46.18843 | 22.64912 | 36067 ft | 471 kts | 298° |
| 2026-04-22 15:55 | 46.21804 | 22.56439 | 36065 ft | 472 kts | 298° |
| 2026-04-22 15:55 | 46.24735 | 22.48025 | 36070 ft | 472 kts | 298° |
| 2026-04-22 15:56 | 46.27685 | 22.39529 | 36069 ft | 472 kts | 298° |
| 2026-04-22 15:56 | 46.30628 | 22.31024 | 36073 ft | 472 kts | 298° |
| 2026-04-22 15:57 | 46.33564 | 22.22518 | 36072 ft | 472 kts | 298° |
| 2026-04-22 15:57 | 46.36503 | 22.13971 | 36075 ft | 473 kts | 298° |
| 2026-04-22 15:58 | 46.39434 | 22.05422 | 36077 ft | 473 kts | 298° |
| 2026-04-22 15:58 | 46.42345 | 21.96901 | 36079 ft | 473 kts | 298° |
| 2026-04-22 15:59 | 46.45261 | 21.88340 | 36082 ft | 473 kts | 298° |
| 2026-04-22 15:59 | 46.48171 | 21.79768 | 36083 ft | 473 kts | 298° |
| 2026-04-22 16:00 | 46.51076 | 21.71183 | 36084 ft | 473 kts | 297° |
| 2026-04-22 16:00 | 46.53957 | 21.62642 | 36086 ft | 473 kts | 297° |
| 2026-04-22 16:01 | 46.56848 | 21.54041 | 36086 ft | 473 kts | 297° |
| 2026-04-22 16:01 | 46.59736 | 21.45424 | 36087 ft | 473 kts | 297° |
| 2026-04-22 16:02 | 46.62627 | 21.36763 | 36093 ft | 474 kts | 297° |
| 2026-04-22 16:02 | 46.65505 | 21.28114 | 36098 ft | 474 kts | 297° |
| 2026-04-22 16:03 | 46.68358 | 21.19515 | 36093 ft | 474 kts | 297° |